sensor_id;sensor_type;location;lat;lon;timestamp;pressure;altitude;pressure_sealevel;temperature;humidity
24962;BME280;12992;50.884;13.668;2023-07-29T00:01:35;96795.91;;;17.62;100.00
24962;BME280;12992;50.884;13.668;2023-07-29T00:04:01;96788.56;;;17.58;100.00
24962;BME280;12992;50.884;13.668;2023-07-29T00:06:26;96783.53;;;17.51;100.00
24962;BME280;12992;50.884;13.668;2023-07-29T00:08:51;96790.03;;;17.55;100.00
24962;BME280;12992;50.884;13.668;2023-07-29T00:11:17;96790.66;;;17.52;100.00
24962;BME280;12992;50.884;13.668;2023-07-29T00:13:42;96791.41;;;17.44;100.00
24962;BME280;12992;50.884;13.668;2023-07-29T00:16:07;96794.56;;;17.51;100.00
24962;BME280;12992;50.884;13.668;2023-07-29T00:18:32;96782.91;;;17.54;100.00
24962;BME280;12992;50.884;13.668;2023-07-29T00:20:58;96791.03;;;17.59;100.00
24962;BME280;12992;50.884;13.668;2023-07-29T00:23:23;96784.09;;;17.62;100.00
24962;BME280;12992;50.884;13.668;2023-07-29T00:25:48;96778.41;;;17.58;100.00
24962;BME280;12992;50.884;13.668;2023-07-29T00:28:13;96779.50;;;17.57;100.00
24962;BME280;12992;50.884;13.668;2023-07-29T00:30:39;96780.59;;;17.47;100.00
24962;BME280;12992;50.884;13.668;2023-07-29T00:33:04;96786.03;;;17.39;100.00
24962;BME280;12992;50.884;13.668;2023-07-29T00:35:30;96776.78;;;17.35;100.00
24962;BME280;12992;50.884;13.668;2023-07-29T00:37:55;96777.53;;;17.26;100.00
24962;BME280;12992;50.884;13.668;2023-07-29T00:40:21;96774.59;;;17.23;100.00
24962;BME280;12992;50.884;13.668;2023-07-29T00:42:47;96767.75;;;17.20;100.00
24962;BME280;12992;50.884;13.668;2023-07-29T00:45:12;96770.50;;;17.20;100.00
24962;BME280;12992;50.884;13.668;2023-07-29T00:47:37;96770.50;;;17.20;100.00
24962;BME280;12992;50.884;13.668;2023-07-29T00:50:03;96770.00;;;17.18;100.00
24962;BME280;12992;50.884;13.668;2023-07-29T00:52:29;96769.50;;;17.16;100.00
24962;BME280;12992;50.884;13.668;2023-07-29T00:54:54;96775.34;;;17.15;100.00
24962;BME280;12992;50.884;13.668;2023-07-29T00:57:20;96779.00;;;17.10;100.00
24962;BME280;12992;50.884;13.668;2023-07-29T00:59:45;96776.38;;;17.05;100.00
24962;BME280;12992;50.884;13.668;2023-07-29T01:02:11;96770.25;;;17.08;100.00
24962;BME280;12992;50.884;13.668;2023-07-29T01:04:36;96774.94;;;17.08;100.00
24962;BME280;12992;50.884;13.668;2023-07-29T01:07:03;96766.81;;;17.03;100.00
24962;BME280;12992;50.884;13.668;2023-07-29T01:12:22;96772.84;;;16.91;100.00
24962;BME280;12992;50.884;13.668;2023-07-29T01:15:00;96770.22;;;16.86;100.00
24962;BME280;12992;50.884;13.668;2023-07-29T01:17:32;96777.66;;;16.85;100.00
24962;BME280;12992;50.884;13.668;2023-07-29T01:20:02;96771.81;;;16.87;100.00
24962;BME280;12992;50.884;13.668;2023-07-29T01:22:33;96755.97;;;16.84;100.00
24962;BME280;12992;50.884;13.668;2023-07-29T01:24:59;96762.09;;;16.81;100.00
24962;BME280;12992;50.884;13.668;2023-07-29T01:27:24;96764.63;;;16.77;100.00
24962;BME280;12992;50.884;13.668;2023-07-29T01:29:49;96763.50;;;16.78;100.00
24962;BME280;12992;50.884;13.668;2023-07-29T01:35:10;96752.78;;;16.90;100.00
24962;BME280;12992;50.884;13.668;2023-07-29T01:37:38;96754.59;;;16.95;100.00
24962;BME280;12992;50.884;13.668;2023-07-29T01:40:04;96754.50;;;17.00;100.00
24962;BME280;12992;50.884;13.668;2023-07-29T01:42:30;96757.00;;;17.10;100.00
24962;BME280;12992;50.884;13.668;2023-07-29T01:44:56;96756.75;;;17.20;100.00
24962;BME280;12992;50.884;13.668;2023-07-29T01:47:21;96752.13;;;17.30;100.00
24962;BME280;12992;50.884;13.668;2023-07-29T01:49:47;96752.00;;;17.35;100.00
24962;BME280;12992;50.884;13.668;2023-07-29T01:52:13;96749.09;;;17.40;100.00
24962;BME280;12992;50.884;13.668;2023-07-29T01:54:38;96752.38;;;17.42;100.00
24962;BME280;12992;50.884;13.668;2023-07-29T01:57:04;96749.63;;;17.42;100.00
24962;BME280;12992;50.884;13.668;2023-07-29T01:59:29;96745.88;;;17.38;100.00
24962;BME280;12992;50.884;13.668;2023-07-29T02:01:54;96745.38;;;17.36;100.00
24962;BME280;12992;50.884;13.668;2023-07-29T02:04:19;96748.56;;;17.29;100.00
24962;BME280;12992;50.884;13.668;2023-07-29T02:06:45;96743.47;;;17.22;100.00
24962;BME280;12992;50.884;13.668;2023-07-29T02:09:10;96742.91;;;17.12;100.00
24962;BME280;12992;50.884;13.668;2023-07-29T02:11:35;96743.00;;;16.98;100.00
24962;BME280;12992;50.884;13.668;2023-07-29T02:14:01;96746.66;;;16.93;100.00
24962;BME280;12992;50.884;13.668;2023-07-29T02:16:26;96744.03;;;16.88;100.00
24962;BME280;12992;50.884;13.668;2023-07-29T02:18:51;96749.66;;;16.83;100.00
24962;BME280;12992;50.884;13.668;2023-07-29T02:21:17;96750.16;;;16.85;100.00
24962;BME280;12992;50.884;13.668;2023-07-29T02:23:42;96754.84;;;16.85;100.00
24962;BME280;12992;50.884;13.668;2023-07-29T02:26:07;96761.97;;;16.86;100.00
24962;BME280;12992;50.884;13.668;2023-07-29T02:28:32;96761.16;;;16.85;100.00
24962;BME280;12992;50.884;13.668;2023-07-29T02:31:13;96759.72;;;16.88;100.00
24962;BME280;12992;50.884;13.668;2023-07-29T02:33:38;96755.53;;;16.90;100.00
24962;BME280;12992;50.884;13.668;2023-07-29T02:36:04;96760.41;;;16.93;100.00
24962;BME280;12992;50.884;13.668;2023-07-29T02:38:30;96762.31;;;17.07;100.00
24962;BME280;12992;50.884;13.668;2023-07-29T02:40:55;96759.63;;;17.15;100.00
24962;BME280;12992;50.884;13.668;2023-07-29T02:43:20;96762.81;;;17.31;100.00
24962;BME280;12992;50.884;13.668;2023-07-29T02:45:52;96766.44;;;17.40;100.00
24962;BME280;12992;50.884;13.668;2023-07-29T02:48:17;96774.47;;;17.50;100.00
24962;BME280;12992;50.884;13.668;2023-07-29T02:50:42;96777.81;;;17.47;100.00
24962;BME280;12992;50.884;13.668;2023-07-29T02:53:08;96778.91;;;17.38;100.00
24962;BME280;12992;50.884;13.668;2023-07-29T02:55:33;96776.06;;;17.29;100.00
24962;BME280;12992;50.884;13.668;2023-07-29T02:57:58;96784.47;;;17.24;100.00
24962;BME280;12992;50.884;13.668;2023-07-29T03:00:24;96785.28;;;17.24;100.00
24962;BME280;12992;50.884;13.668;2023-07-29T03:02:49;96787.50;;;17.22;100.00
24962;BME280;12992;50.884;13.668;2023-07-29T03:05:15;96785.81;;;17.13;100.00
24962;BME280;12992;50.884;13.668;2023-07-29T03:07:41;96789.19;;;17.10;100.00
24962;BME280;12992;50.884;13.668;2023-07-29T03:10:06;96801.66;;;17.07;100.00
24962;BME280;12992;50.884;13.668;2023-07-29T03:12:32;96803.28;;;17.08;100.00
24962;BME280;12992;50.884;13.668;2023-07-29T03:14:57;96797.84;;;17.17;100.00
24962;BME280;12992;50.884;13.668;2023-07-29T03:17:22;96798.53;;;17.22;100.00
24962;BME280;12992;50.884;13.668;2023-07-29T03:19:48;96805.84;;;17.27;100.00
24962;BME280;12992;50.884;13.668;2023-07-29T03:22:13;96804.94;;;17.32;100.00
24962;BME280;12992;50.884;13.668;2023-07-29T03:24:38;96799.94;;;17.34;100.00
24962;BME280;12992;50.884;13.668;2023-07-29T03:27:04;96799.94;;;17.34;100.00
24962;BME280;12992;50.884;13.668;2023-07-29T03:29:30;96792.16;;;17.36;100.00
24962;BME280;12992;50.884;13.668;2023-07-29T03:31:55;96794.28;;;17.39;100.00
24962;BME280;12992;50.884;13.668;2023-07-29T03:34:20;96791.41;;;17.44;100.00
24962;BME280;12992;50.884;13.668;2023-07-29T03:36:46;96794.88;;;17.49;100.00
24962;BME280;12992;50.884;13.668;2023-07-29T03:39:13;96784.03;;;17.53;100.00
24962;BME280;12992;50.884;13.668;2023-07-29T03:41:39;96793.47;;;17.61;100.00
24962;BME280;12992;50.884;13.668;2023-07-29T03:44:04;96793.34;;;17.66;100.00
24962;BME280;12992;50.884;13.668;2023-07-29T03:46:29;96791.09;;;17.68;100.00
24962;BME280;12992;50.884;13.668;2023-07-29T03:48:55;96787.22;;;17.69;100.00
24962;BME280;12992;50.884;13.668;2023-07-29T03:51:20;96780.78;;;17.73;100.00
24962;BME280;12992;50.884;13.668;2023-07-29T03:53:46;96789.53;;;17.75;100.00
24962;BME280;12992;50.884;13.668;2023-07-29T03:56:12;96786.53;;;17.86;100.00
24962;BME280;12992;50.884;13.668;2023-07-29T03:58:37;96777.50;;;17.94;100.00
24962;BME280;12992;50.884;13.668;2023-07-29T04:01:02;96783.50;;;17.96;100.00
24962;BME280;12992;50.884;13.668;2023-07-29T04:03:27;96783.19;;;17.97;100.00
24962;BME280;12992;50.884;13.668;2023-07-29T04:05:54;96781.72;;;18.00;100.00
24962;BME280;12992;50.884;13.668;2023-07-29T04:08:19;96768.31;;;18.07;100.00
24962;BME280;12992;50.884;13.668;2023-07-29T04:10:44;96773.19;;;18.10;100.00
24962;BME280;12992;50.884;13.668;2023-07-29T04:13:10;96778.56;;;18.15;100.00
24962;BME280;12992;50.884;13.668;2023-07-29T04:15:35;96784.56;;;18.17;100.00
24962;BME280;12992;50.884;13.668;2023-07-29T04:18:01;96783.97;;;18.20;100.00
24962;BME280;12992;50.884;13.668;2023-07-29T04:20:26;96776.50;;;18.21;100.00
24962;BME280;12992;50.884;13.668;2023-07-29T04:22:51;96783.78;;;18.25;100.00
24962;BME280;12992;50.884;13.668;2023-07-29T04:25:17;96782.03;;;18.29;100.00
24962;BME280;12992;50.884;13.668;2023-07-29T04:27:42;96782.22;;;18.33;100.00
24962;BME280;12992;50.884;13.668;2023-07-29T04:30:07;96778.84;;;18.45;100.00
24962;BME280;12992;50.884;13.668;2023-07-29T04:32:33;96778.69;;;18.50;100.00
24962;BME280;12992;50.884;13.668;2023-07-29T04:34:58;96778.03;;;18.53;100.00
24962;BME280;12992;50.884;13.668;2023-07-29T04:37:23;96777.59;;;18.59;100.00
24962;BME280;12992;50.884;13.668;2023-07-29T04:39:49;96778.41;;;18.60;100.00
24962;BME280;12992;50.884;13.668;2023-07-29T04:42:14;96789.91;;;18.62;100.00
24962;BME280;12992;50.884;13.668;2023-07-29T04:44:39;96779.22;;;18.60;100.00
24962;BME280;12992;50.884;13.668;2023-07-29T04:47:07;96781.06;;;18.65;100.00
24962;BME280;12992;50.884;13.668;2023-07-29T04:49:32;96784.78;;;18.69;100.00
24962;BME280;12992;50.884;13.668;2023-07-29T04:51:57;96774.97;;;18.63;100.00
24962;BME280;12992;50.884;13.668;2023-07-29T04:54:22;96777.44;;;18.64;100.00
24962;BME280;12992;50.884;13.668;2023-07-29T04:56:48;96772.44;;;18.66;100.00
24962;BME280;12992;50.884;13.668;2023-07-29T04:59:16;96773.59;;;18.65;100.00
24962;BME280;12992;50.884;13.668;2023-07-29T05:01:42;96775.38;;;18.70;100.00
24962;BME280;12992;50.884;13.668;2023-07-29T05:04:08;96764.19;;;18.75;100.00
24962;BME280;12992;50.884;13.668;2023-07-29T05:06:33;96773.44;;;18.79;100.00
24962;BME280;12992;50.884;13.668;2023-07-29T05:08:59;96765.00;;;18.76;100.00
24962;BME280;12992;50.884;13.668;2023-07-29T05:11:24;96772.00;;;18.82;100.00
24962;BME280;12992;50.884;13.668;2023-07-29T05:13:52;96771.81;;;18.87;100.00
24962;BME280;12992;50.884;13.668;2023-07-29T05:16:18;96761.94;;;18.94;100.00
24962;BME280;12992;50.884;13.668;2023-07-29T05:18:44;96761.47;;;18.92;100.00
24962;BME280;12992;50.884;13.668;2023-07-29T05:21:09;96762.25;;;18.93;100.00
24962;BME280;12992;50.884;13.668;2023-07-29T05:23:36;96764.69;;;18.94;100.00
24962;BME280;12992;50.884;13.668;2023-07-29T05:26:01;96755.28;;;18.95;100.00
24962;BME280;12992;50.884;13.668;2023-07-29T05:28:27;96750.25;;;19.06;100.00
24962;BME280;12992;50.884;13.668;2023-07-29T05:30:52;96754.31;;;19.26;100.00
24962;BME280;12992;50.884;13.668;2023-07-29T05:33:18;96751.53;;;19.43;100.00
24962;BME280;12992;50.884;13.668;2023-07-29T05:35:43;96746.16;;;19.56;100.00
24962;BME280;12992;50.884;13.668;2023-07-29T05:38:08;96753.16;;;19.70;100.00
24962;BME280;12992;50.884;13.668;2023-07-29T05:40:34;96755.03;;;19.87;100.00
24962;BME280;12992;50.884;13.668;2023-07-29T05:43:00;96757.59;;;20.01;100.00
24962;BME280;12992;50.884;13.668;2023-07-29T05:45:26;96743.75;;;20.09;100.00
24962;BME280;12992;50.884;13.668;2023-07-29T05:47:51;96745.69;;;20.18;100.00
24962;BME280;12992;50.884;13.668;2023-07-29T05:50:16;96735.84;;;20.29;100.00
24962;BME280;12992;50.884;13.668;2023-07-29T05:52:42;96736.47;;;20.43;100.00
24962;BME280;12992;50.884;13.668;2023-07-29T05:55:07;96728.66;;;20.45;100.00
24962;BME280;12992;50.884;13.668;2023-07-29T05:57:33;96724.91;;;20.50;100.00
24962;BME280;12992;50.884;13.668;2023-07-29T05:59:58;96728.50;;;20.42;100.00
24962;BME280;12992;50.884;13.668;2023-07-29T06:02:23;96736.13;;;20.45;100.00
24962;BME280;12992;50.884;13.668;2023-07-29T06:04:48;96741.56;;;20.62;100.00
24962;BME280;12992;50.884;13.668;2023-07-29T06:07:14;96725.25;;;20.69;100.00
24962;BME280;12992;50.884;13.668;2023-07-29T06:09:39;96723.59;;;20.77;100.00
24962;BME280;12992;50.884;13.668;2023-07-29T06:12:05;96716.56;;;20.79;100.00
24962;BME280;12992;50.884;13.668;2023-07-29T06:14:30;96724.75;;;20.67;100.00
24962;BME280;12992;50.884;13.668;2023-07-29T06:16:55;96719.78;;;20.60;100.00
24962;BME280;12992;50.884;13.668;2023-07-29T06:19:21;96722.59;;;20.52;100.00
24962;BME280;12992;50.884;13.668;2023-07-29T06:21:46;96719.03;;;20.51;100.00
24962;BME280;12992;50.884;13.668;2023-07-29T06:24:11;96718.69;;;20.53;100.00
24962;BME280;12992;50.884;13.668;2023-07-29T06:26:36;96728.84;;;20.70;100.00
24962;BME280;12992;50.884;13.668;2023-07-29T06:29:02;96728.66;;;20.96;100.00
24962;BME280;12992;50.884;13.668;2023-07-29T06:31:27;96730.72;;;21.19;100.00
24962;BME280;12992;50.884;13.668;2023-07-29T06:33:52;96724.53;;;21.23;100.00
24962;BME280;12992;50.884;13.668;2023-07-29T06:36:19;96727.09;;;21.28;100.00
24962;BME280;12992;50.884;13.668;2023-07-29T06:38:44;96734.97;;;21.38;100.00
24962;BME280;12992;50.884;13.668;2023-07-29T06:41:10;96738.03;;;21.45;100.00
24962;BME280;12992;50.884;13.668;2023-07-29T06:43:35;96739.78;;;21.49;100.00
24962;BME280;12992;50.884;13.668;2023-07-29T06:46:00;96734.50;;;21.57;100.00
24962;BME280;12992;50.884;13.668;2023-07-29T06:48:25;96736.66;;;21.51;100.00
24962;BME280;12992;50.884;13.668;2023-07-29T06:50:51;96730.19;;;21.47;100.00
24962;BME280;12992;50.884;13.668;2023-07-29T06:53:17;96726.13;;;21.44;100.00
24962;BME280;12992;50.884;13.668;2023-07-29T06:55:42;96733.94;;;21.63;100.00
24962;BME280;12992;50.884;13.668;2023-07-29T06:58:08;96726.31;;;21.60;100.00
24962;BME280;12992;50.884;13.668;2023-07-29T07:00:33;96727.13;;;21.61;100.00
24962;BME280;12992;50.884;13.668;2023-07-29T07:02:58;96720.50;;;21.86;100.00
24962;BME280;12992;50.884;13.668;2023-07-29T07:05:23;96724.59;;;22.13;100.00
24962;BME280;12992;50.884;13.668;2023-07-29T07:07:49;96713.97;;;22.15;100.00
24962;BME280;12992;50.884;13.668;2023-07-29T07:10:14;96707.03;;;22.09;100.00
24962;BME280;12992;50.884;13.668;2023-07-29T07:12:39;96702.66;;;22.20;100.00
24962;BME280;12992;50.884;13.668;2023-07-29T07:15:05;96697.53;;;22.59;100.00
24962;BME280;12992;50.884;13.668;2023-07-29T07:17:30;96693.84;;;22.55;96.67
24962;BME280;12992;50.884;13.668;2023-07-29T07:19:55;96686.38;;;22.19;97.11
24962;BME280;12992;50.884;13.668;2023-07-29T07:22:20;96668.72;;;21.78;98.12
24962;BME280;12992;50.884;13.668;2023-07-29T07:24:46;96669.28;;;21.59;98.71
24962;BME280;12992;50.884;13.668;2023-07-29T07:27:11;96665.34;;;21.60;99.86
24962;BME280;12992;50.884;13.668;2023-07-29T07:29:36;96673.66;;;21.60;100.00
24962;BME280;12992;50.884;13.668;2023-07-29T07:32:01;96675.53;;;21.81;99.08
24962;BME280;12992;50.884;13.668;2023-07-29T07:34:27;96673.28;;;22.07;94.12
24962;BME280;12992;50.884;13.668;2023-07-29T07:36:52;96675.81;;;22.24;97.21
24962;BME280;12992;50.884;13.668;2023-07-29T07:39:17;96667.97;;;22.39;93.50
24962;BME280;12992;50.884;13.668;2023-07-29T07:41:43;96674.19;;;22.60;97.55
24962;BME280;12992;50.884;13.668;2023-07-29T07:44:08;96667.81;;;22.72;95.22
24962;BME280;12992;50.884;13.668;2023-07-29T07:46:33;96651.00;;;22.93;86.23
24962;BME280;12992;50.884;13.668;2023-07-29T07:48:58;96663.84;;;22.97;88.53
24962;BME280;12992;50.884;13.668;2023-07-29T07:51:24;96659.09;;;22.98;88.04
24962;BME280;12992;50.884;13.668;2023-07-29T07:53:49;96656.25;;;23.10;89.52
24962;BME280;12992;50.884;13.668;2023-07-29T07:56:14;96649.03;;;23.21;87.47
24962;BME280;12992;50.884;13.668;2023-07-29T07:58:40;96659.69;;;23.19;87.99
24962;BME280;12992;50.884;13.668;2023-07-29T08:01:06;96647.25;;;23.29;88.09
24962;BME280;12992;50.884;13.668;2023-07-29T08:03:31;96644.78;;;23.39;85.97
24962;BME280;12992;50.884;13.668;2023-07-29T08:05:57;96635.09;;;23.61;81.33
24962;BME280;12992;50.884;13.668;2023-07-29T08:08:22;96633.09;;;23.62;84.48
24962;BME280;12992;50.884;13.668;2023-07-29T08:10:47;96630.72;;;23.32;85.81
24962;BME280;12992;50.884;13.668;2023-07-29T08:13:12;96629.28;;;23.38;89.10
24962;BME280;12992;50.884;13.668;2023-07-29T08:15:39;96632.31;;;23.61;86.13
24962;BME280;12992;50.884;13.668;2023-07-29T08:18:06;96637.59;;;23.82;84.76
24962;BME280;12992;50.884;13.668;2023-07-29T08:20:31;96621.06;;;24.21;84.57
24962;BME280;12992;50.884;13.668;2023-07-29T08:22:57;96615.41;;;24.17;83.45
24962;BME280;12992;50.884;13.668;2023-07-29T08:25:23;96613.88;;;24.20;81.35
24962;BME280;12992;50.884;13.668;2023-07-29T08:27:48;96606.75;;;23.87;81.07
24962;BME280;12992;50.884;13.668;2023-07-29T08:30:13;96602.06;;;23.76;83.46
24962;BME280;12992;50.884;13.668;2023-07-29T08:32:39;96625.97;;;24.27;87.32
24962;BME280;12992;50.884;13.668;2023-07-29T08:35:05;96617.06;;;25.27;80.18
24962;BME280;12992;50.884;13.668;2023-07-29T08:37:30;96619.00;;;25.46;73.49
24962;BME280;12992;50.884;13.668;2023-07-29T08:39:56;96629.09;;;26.23;78.29
24962;BME280;12992;50.884;13.668;2023-07-29T08:42:21;96606.53;;;26.58;72.66
24962;BME280;12992;50.884;13.668;2023-07-29T08:44:48;96610.88;;;25.80;72.00
24962;BME280;12992;50.884;13.668;2023-07-29T08:47:14;96608.00;;;25.53;75.13
24962;BME280;12992;50.884;13.668;2023-07-29T08:49:39;96609.66;;;25.16;76.79
24962;BME280;12992;50.884;13.668;2023-07-29T08:52:05;96614.78;;;24.75;79.16
24962;BME280;12992;50.884;13.668;2023-07-29T08:54:31;96615.69;;;24.63;80.94
24962;BME280;12992;50.884;13.668;2023-07-29T08:56:56;96608.88;;;24.61;83.08
24962;BME280;12992;50.884;13.668;2023-07-29T08:59:22;96621.97;;;24.41;81.79
24962;BME280;12992;50.884;13.668;2023-07-29T09:01:48;96617.75;;;24.66;82.74
24962;BME280;12992;50.884;13.668;2023-07-29T09:04:14;96606.84;;;24.77;76.99
24962;BME280;12992;50.884;13.668;2023-07-29T09:06:39;96611.09;;;24.71;79.89
24962;BME280;12992;50.884;13.668;2023-07-29T09:09:08;96606.25;;;24.68;82.13
24962;BME280;12992;50.884;13.668;2023-07-29T09:11:33;96602.28;;;24.69;76.57
24962;BME280;12992;50.884;13.668;2023-07-29T09:13:59;96614.34;;;25.31;79.36
24962;BME280;12992;50.884;13.668;2023-07-29T09:16:24;96616.47;;;25.80;77.07
24962;BME280;12992;50.884;13.668;2023-07-29T09:18:50;96609.78;;;26.11;77.11
24962;BME280;12992;50.884;13.668;2023-07-29T09:21:16;96609.81;;;26.37;76.07
24962;BME280;12992;50.884;13.668;2023-07-29T09:23:42;96612.56;;;26.60;74.21
24962;BME280;12992;50.884;13.668;2023-07-29T09:26:07;96598.41;;;26.46;72.03
24962;BME280;12992;50.884;13.668;2023-07-29T09:28:34;96592.78;;;26.42;72.97
24962;BME280;12992;50.884;13.668;2023-07-29T09:30:59;96594.06;;;26.78;73.94
24962;BME280;12992;50.884;13.668;2023-07-29T09:33:25;96586.34;;;26.68;70.35
24962;BME280;12992;50.884;13.668;2023-07-29T09:35:50;96583.88;;;26.37;72.42
24962;BME280;12992;50.884;13.668;2023-07-29T09:38:16;96578.34;;;26.14;70.38
24962;BME280;12992;50.884;13.668;2023-07-29T09:40:41;96591.03;;;26.61;73.31
24962;BME280;12992;50.884;13.668;2023-07-29T09:43:08;96596.22;;;27.59;67.92
24962;BME280;12992;50.884;13.668;2023-07-29T09:45:34;96587.88;;;27.26;68.25
24962;BME280;12992;50.884;13.668;2023-07-29T09:48:00;96584.03;;;26.21;71.80
24962;BME280;12992;50.884;13.668;2023-07-29T09:50:25;96589.16;;;24.50;82.24
24962;BME280;12992;50.884;13.668;2023-07-29T09:52:51;96595.47;;;22.93;96.09
24962;BME280;12992;50.884;13.668;2023-07-29T09:55:17;96597.75;;;22.10;100.00
24962;BME280;12992;50.884;13.668;2023-07-29T09:57:43;96606.69;;;21.70;100.00
24962;BME280;12992;50.884;13.668;2023-07-29T10:00:10;96603.34;;;21.89;100.00
24962;BME280;12992;50.884;13.668;2023-07-29T10:02:39;96611.59;;;22.10;100.00
24962;BME280;12992;50.884;13.668;2023-07-29T10:05:05;96602.56;;;22.25;100.00
24962;BME280;12992;50.884;13.668;2023-07-29T10:07:31;96599.06;;;22.41;100.00
24962;BME280;12992;50.884;13.668;2023-07-29T10:09:56;96592.66;;;22.52;100.00
24962;BME280;12992;50.884;13.668;2023-07-29T10:12:22;96588.94;;;22.60;100.00
24962;BME280;12992;50.884;13.668;2023-07-29T10:14:49;96587.34;;;23.00;100.00
24962;BME280;12992;50.884;13.668;2023-07-29T10:17:15;96595.75;;;24.26;100.00
24962;BME280;12992;50.884;13.668;2023-07-29T10:19:40;96591.13;;;26.41;91.69
24962;BME280;12992;50.884;13.668;2023-07-29T10:22:07;96602.25;;;28.54;83.93
24962;BME280;12992;50.884;13.668;2023-07-29T10:24:33;96586.44;;;28.97;75.15
24962;BME280;12992;50.884;13.668;2023-07-29T10:27:00;96562.50;;;27.86;70.59
24962;BME280;12992;50.884;13.668;2023-07-29T10:29:28;96560.56;;;26.82;72.72
24962;BME280;12992;50.884;13.668;2023-07-29T10:31:54;96565.81;;;25.55;75.69
24962;BME280;12992;50.884;13.668;2023-07-29T10:34:21;96563.50;;;23.74;83.33
24962;BME280;12992;50.884;13.668;2023-07-29T10:36:48;96587.28;;;22.31;93.86
24962;BME280;12992;50.884;13.668;2023-07-29T10:39:13;96595.28;;;21.14;100.00
24962;BME280;12992;50.884;13.668;2023-07-29T10:47:10;96586.78;;;19.09;100.00
24962;BME280;12992;50.884;13.668;2023-07-29T10:49:35;96584.88;;;18.92;100.00
24962;BME280;12992;50.884;13.668;2023-07-29T10:52:01;96571.56;;;18.94;100.00
24962;BME280;12992;50.884;13.668;2023-07-29T10:54:26;96591.31;;;19.14;100.00
24962;BME280;12992;50.884;13.668;2023-07-29T10:56:52;96599.19;;;19.33;100.00
24962;BME280;12992;50.884;13.668;2023-07-29T11:01:53;96610.00;;;19.64;100.00
24962;BME280;12992;50.884;13.668;2023-07-29T11:09:42;96591.97;;;20.46;100.00
24962;BME280;12992;50.884;13.668;2023-07-29T11:12:53;96588.38;;;20.67;100.00
24962;BME280;12992;50.884;13.668;2023-07-29T11:14:53;96592.97;;;20.83;100.00
24962;BME280;12992;50.884;13.668;2023-07-29T11:17:18;96583.56;;;20.97;100.00
24962;BME280;12992;50.884;13.668;2023-07-29T11:19:44;96577.38;;;21.12;100.00
24962;BME280;12992;50.884;13.668;2023-07-29T11:22:10;96569.25;;;21.28;100.00
24962;BME280;12992;50.884;13.668;2023-07-29T11:24:35;96578.75;;;21.51;100.00
24962;BME280;12992;50.884;13.668;2023-07-29T11:27:00;96576.69;;;21.85;100.00
24962;BME280;12992;50.884;13.668;2023-07-29T11:29:25;96579.19;;;22.39;100.00
24962;BME280;12992;50.884;13.668;2023-07-29T11:31:51;96588.19;;;22.88;100.00
24962;BME280;12992;50.884;13.668;2023-07-29T11:34:16;96579.69;;;23.40;100.00
24962;BME280;12992;50.884;13.668;2023-07-29T11:36:45;96572.84;;;23.66;100.00
24962;BME280;12992;50.884;13.668;2023-07-29T11:39:10;96571.13;;;23.93;100.00
24962;BME280;12992;50.884;13.668;2023-07-29T11:41:36;96636.00;;;23.97;100.00
24962;BME280;12992;50.884;13.668;2023-07-29T11:44:02;96569.97;;;23.78;100.00
24962;BME280;12992;50.884;13.668;2023-07-29T11:46:27;96568.78;;;23.48;100.00
24962;BME280;12992;50.884;13.668;2023-07-29T11:48:54;96573.34;;;23.24;100.00
24962;BME280;12992;50.884;13.668;2023-07-29T11:51:20;96569.44;;;22.97;100.00
24962;BME280;12992;50.884;13.668;2023-07-29T11:53:46;96568.56;;;22.69;100.00
24962;BME280;12992;50.884;13.668;2023-07-29T11:56:11;96555.41;;;22.25;100.00
24962;BME280;12992;50.884;13.668;2023-07-29T11:58:38;96552.66;;;22.01;100.00
24962;BME280;12992;50.884;13.668;2023-07-29T12:01:03;96549.66;;;21.69;100.00
24962;BME280;12992;50.884;13.668;2023-07-29T12:03:28;96543.78;;;21.59;100.00
24962;BME280;12992;50.884;13.668;2023-07-29T12:05:54;96551.41;;;21.62;100.00
24962;BME280;12992;50.884;13.668;2023-07-29T12:08:19;96556.97;;;21.74;100.00
24962;BME280;12992;50.884;13.668;2023-07-29T12:10:45;96561.91;;;21.81;100.00
24962;BME280;12992;50.884;13.668;2023-07-29T12:13:10;96556.13;;;21.86;100.00
24962;BME280;12992;50.884;13.668;2023-07-29T12:15:37;96552.53;;;21.97;100.00
24962;BME280;12992;50.884;13.668;2023-07-29T12:18:03;96551.94;;;22.16;100.00
24962;BME280;12992;50.884;13.668;2023-07-29T12:20:29;96552.72;;;22.41;100.00
24962;BME280;12992;50.884;13.668;2023-07-29T12:22:58;96544.88;;;22.71;100.00
24962;BME280;12992;50.884;13.668;2023-07-29T12:25:24;96545.16;;;22.82;98.96
24962;BME280;12992;50.884;13.668;2023-07-29T12:27:49;96552.56;;;22.90;100.00
24962;BME280;12992;50.884;13.668;2023-07-29T12:30:14;96536.28;;;22.88;100.00
24962;BME280;12992;50.884;13.668;2023-07-29T12:32:46;96534.78;;;23.07;100.00
24962;BME280;12992;50.884;13.668;2023-07-29T12:35:12;96533.25;;;23.09;98.66
24962;BME280;12992;50.884;13.668;2023-07-29T12:37:37;96527.91;;;23.32;100.00
24962;BME280;12992;50.884;13.668;2023-07-29T12:40:04;96519.56;;;23.32;97.95
24962;BME280;12992;50.884;13.668;2023-07-29T12:42:29;96523.59;;;23.82;97.75
24962;BME280;12992;50.884;13.668;2023-07-29T12:44:55;96530.66;;;24.66;95.56
24962;BME280;12992;50.884;13.668;2023-07-29T12:47:20;96520.94;;;25.40;88.42
24962;BME280;12992;50.884;13.668;2023-07-29T12:49:46;96518.56;;;25.88;82.45
24962;BME280;12992;50.884;13.668;2023-07-29T12:52:11;96516.44;;;26.61;79.46
24962;BME280;12992;50.884;13.668;2023-07-29T12:54:36;96502.19;;;26.73;76.28